sensor_id;sensor_type;location;lat;lon;timestamp;pressure;altitude;pressure_sealevel;temperature;humidity
28312;BME280;15572;48.810;9.148;2024-03-17T00:02:06;98839.50;;;6.62;100.00
28312;BME280;15572;48.810;9.148;2024-03-17T00:07:03;98842.44;;;6.51;100.00
28312;BME280;15572;48.810;9.148;2024-03-17T00:11:59;98834.81;;;6.47;100.00
28312;BME280;15572;48.810;9.148;2024-03-17T00:16:56;98827.81;;;6.36;100.00
28312;BME280;15572;48.810;9.148;2024-03-17T00:21:54;98841.44;;;6.17;100.00
28312;BME280;15572;48.810;9.148;2024-03-17T00:26:50;98831.06;;;6.22;100.00
28312;BME280;15572;48.810;9.148;2024-03-17T00:31:47;98824.59;;;6.15;100.00
28312;BME280;15572;48.810;9.148;2024-03-17T00:36:43;98824.91;;;6.12;100.00
28312;BME280;15572;48.810;9.148;2024-03-17T00:41:41;98825.38;;;6.07;100.00
28312;BME280;15572;48.810;9.148;2024-03-17T00:46:37;98823.31;;;6.01;100.00
28312;BME280;15572;48.810;9.148;2024-03-17T00:51:34;98819.78;;;5.73;100.00
28312;BME280;15572;48.810;9.148;2024-03-17T00:56:31;98813.75;;;5.62;100.00
28312;BME280;15572;48.810;9.148;2024-03-17T01:01:29;98806.56;;;5.62;100.00
28312;BME280;15572;48.810;9.148;2024-03-17T01:06:25;98809.16;;;5.72;100.00
28312;BME280;15572;48.810;9.148;2024-03-17T01:11:21;98814.13;;;5.76;100.00
28312;BME280;15572;48.810;9.148;2024-03-17T01:16:20;98808.19;;;5.73;100.00
28312;BME280;15572;48.810;9.148;2024-03-17T01:21:19;98806.88;;;5.59;100.00
28312;BME280;15572;48.810;9.148;2024-03-17T01:26:16;98806.38;;;5.46;100.00
28312;BME280;15572;48.810;9.148;2024-03-17T01:31:12;98798.28;;;5.28;100.00
28312;BME280;15572;48.810;9.148;2024-03-17T01:36:08;98789.97;;;5.22;100.00
28312;BME280;15572;48.810;9.148;2024-03-17T01:41:06;98786.53;;;5.29;100.00
28312;BME280;15572;48.810;9.148;2024-03-17T01:46:03;98783.19;;;5.45;100.00
28312;BME280;15572;48.810;9.148;2024-03-17T01:50:59;98768.63;;;5.47;100.00
28312;BME280;15572;48.810;9.148;2024-03-17T01:55:57;98768.75;;;5.46;100.00
28312;BME280;15572;48.810;9.148;2024-03-17T02:00:56;98758.22;;;5.35;100.00
28312;BME280;15572;48.810;9.148;2024-03-17T02:05:53;98757.22;;;5.08;100.00
28312;BME280;15572;48.810;9.148;2024-03-17T02:10:52;98747.22;;;5.11;100.00
28312;BME280;15572;48.810;9.148;2024-03-17T02:15:48;98742.53;;;5.13;100.00
28312;BME280;15572;48.810;9.148;2024-03-17T02:20:46;98734.03;;;5.17;100.00
28312;BME280;15572;48.810;9.148;2024-03-17T02:25:55;98739.16;;;5.11;100.00
28312;BME280;15572;48.810;9.148;2024-03-17T02:30:52;98736.25;;;4.94;100.00
28312;BME280;15572;48.810;9.148;2024-03-17T02:35:48;98738.56;;;4.89;100.00
28312;BME280;15572;48.810;9.148;2024-03-17T02:40:44;98724.03;;;4.82;100.00
28312;BME280;15572;48.810;9.148;2024-03-17T02:45:43;98727.69;;;4.81;100.00
28312;BME280;15572;48.810;9.148;2024-03-17T02:50:40;98727.09;;;4.87;100.00
28312;BME280;15572;48.810;9.148;2024-03-17T02:55:36;98721.69;;;4.97;100.00
28312;BME280;15572;48.810;9.148;2024-03-17T03:00:32;98717.28;;;5.05;100.00
28312;BME280;15572;48.810;9.148;2024-03-17T03:05:31;98725.75;;;5.11;100.00
28312;BME280;15572;48.810;9.148;2024-03-17T03:10:28;98732.41;;;5.06;100.00
28312;BME280;15572;48.810;9.148;2024-03-17T03:15:24;98732.34;;;4.89;100.00
28312;BME280;15572;48.810;9.148;2024-03-17T03:20:21;98728.53;;;4.82;100.00
28312;BME280;15572;48.810;9.148;2024-03-17T03:25:19;98726.44;;;4.85;100.00
28312;BME280;15572;48.810;9.148;2024-03-17T03:30:15;98725.31;;;4.78;100.00
28312;BME280;15572;48.810;9.148;2024-03-17T03:35:16;98719.56;;;4.73;100.00
28312;BME280;15572;48.810;9.148;2024-03-17T03:40:12;98725.06;;;4.72;100.00
28312;BME280;15572;48.810;9.148;2024-03-17T03:45:12;98723.75;;;4.76;100.00
28312;BME280;15572;48.810;9.148;2024-03-17T03:50:09;98707.53;;;4.77;100.00
28312;BME280;15572;48.810;9.148;2024-03-17T03:55:07;98711.66;;;4.72;100.00
28312;BME280;15572;48.810;9.148;2024-03-17T04:00:06;98725.31;;;4.78;100.00
28312;BME280;15572;48.810;9.148;2024-03-17T04:05:09;98724.50;;;4.68;100.00
28312;BME280;15572;48.810;9.148;2024-03-17T04:10:06;98722.72;;;4.49;100.00
28312;BME280;15572;48.810;9.148;2024-03-17T04:15:04;98712.75;;;4.42;100.00
28312;BME280;15572;48.810;9.148;2024-03-17T04:20:01;98712.34;;;4.37;100.00
28312;BME280;15572;48.810;9.148;2024-03-17T04:24:59;98723.19;;;4.35;100.00
28312;BME280;15572;48.810;9.148;2024-03-17T04:29:57;98722.19;;;4.46;100.00
28312;BME280;15572;48.810;9.148;2024-03-17T04:34:53;98711.16;;;4.49;100.00
28312;BME280;15572;48.810;9.148;2024-03-17T04:39:50;98713.16;;;4.47;100.00
28312;BME280;15572;48.810;9.148;2024-03-17T04:44:48;98709.66;;;4.37;100.00
28312;BME280;15572;48.810;9.148;2024-03-17T04:49:44;98706.69;;;4.30;100.00
28312;BME280;15572;48.810;9.148;2024-03-17T04:54:40;98722.25;;;4.27;100.00
28312;BME280;15572;48.810;9.148;2024-03-17T04:59:38;98723.50;;;4.22;100.00
28312;BME280;15572;48.810;9.148;2024-03-17T05:04:35;98719.16;;;4.21;100.00
28312;BME280;15572;48.810;9.148;2024-03-17T05:09:32;98716.63;;;4.10;100.00
28312;BME280;15572;48.810;9.148;2024-03-17T05:14:29;98712.66;;;4.14;100.00
28312;BME280;15572;48.810;9.148;2024-03-17T05:19:25;98714.47;;;4.23;100.00
28312;BME280;15572;48.810;9.148;2024-03-17T05:24:23;98721.09;;;4.29;100.00
28312;BME280;15572;48.810;9.148;2024-03-17T05:29:19;98726.88;;;4.34;100.00
28312;BME280;15572;48.810;9.148;2024-03-17T05:34:17;98729.00;;;4.31;100.00
28312;BME280;15572;48.810;9.148;2024-03-17T05:39:14;98733.38;;;4.32;100.00
28312;BME280;15572;48.810;9.148;2024-03-17T05:44:11;98722.81;;;4.20;100.00
28312;BME280;15572;48.810;9.148;2024-03-17T05:49:10;98720.09;;;4.30;100.00
28312;BME280;15572;48.810;9.148;2024-03-17T05:54:06;98731.91;;;4.47;100.00
28312;BME280;15572;48.810;9.148;2024-03-17T05:59:03;98723.84;;;4.56;100.00
28312;BME280;15572;48.810;9.148;2024-03-17T06:04:02;98720.31;;;4.56;100.00
28312;BME280;15572;48.810;9.148;2024-03-17T06:09:00;98717.53;;;4.48;100.00
28312;BME280;15572;48.810;9.148;2024-03-17T06:13:56;98721.47;;;4.53;100.00
28312;BME280;15572;48.810;9.148;2024-03-17T06:18:52;98721.38;;;4.73;100.00
28312;BME280;15572;48.810;9.148;2024-03-17T06:23:50;98718.41;;;4.76;100.00
28312;BME280;15572;48.810;9.148;2024-03-17T06:28:46;98712.50;;;4.72;100.00
28312;BME280;15572;48.810;9.148;2024-03-17T06:33:43;98715.13;;;4.82;100.00
28312;BME280;15572;48.810;9.148;2024-03-17T06:38:39;98710.03;;;4.88;100.00
28312;BME280;15572;48.810;9.148;2024-03-17T06:43:37;98709.69;;;5.01;100.00
28312;BME280;15572;48.810;9.148;2024-03-17T06:48:34;98709.44;;;5.22;100.00
28312;BME280;15572;48.810;9.148;2024-03-17T06:53:31;98703.69;;;5.34;100.00
28312;BME280;15572;48.810;9.148;2024-03-17T06:58:28;98712.75;;;5.51;100.00
28312;BME280;15572;48.810;9.148;2024-03-17T07:03:27;98707.50;;;5.77;100.00
28312;BME280;15572;48.810;9.148;2024-03-17T07:08:24;98707.03;;;5.99;100.00
28312;BME280;15572;48.810;9.148;2024-03-17T07:13:21;98700.16;;;6.22;100.00
28312;BME280;15572;48.810;9.148;2024-03-17T07:18:17;98692.44;;;6.45;100.00
28312;BME280;15572;48.810;9.148;2024-03-17T07:23:15;98701.25;;;6.63;100.00
28312;BME280;15572;48.810;9.148;2024-03-17T07:28:11;98697.16;;;6.77;100.00
28312;BME280;15572;48.810;9.148;2024-03-17T07:33:08;98698.34;;;6.83;100.00
28312;BME280;15572;48.810;9.148;2024-03-17T07:38:04;98693.72;;;7.01;100.00
28312;BME280;15572;48.810;9.148;2024-03-17T07:43:02;98692.13;;;7.24;100.00
28312;BME280;15572;48.810;9.148;2024-03-17T07:47:58;98686.78;;;7.48;100.00
28312;BME280;15572;48.810;9.148;2024-03-17T07:52:55;98704.34;;;7.77;100.00
28312;BME280;15572;48.810;9.148;2024-03-17T07:57:51;98693.25;;;8.04;100.00
28312;BME280;15572;48.810;9.148;2024-03-17T08:02:49;98699.66;;;8.27;100.00
28312;BME280;15572;48.810;9.148;2024-03-17T08:07:45;98691.72;;;8.58;100.00
28312;BME280;15572;48.810;9.148;2024-03-17T08:12:42;98686.56;;;8.87;100.00
28312;BME280;15572;48.810;9.148;2024-03-17T08:17:38;98685.66;;;9.11;100.00
28312;BME280;15572;48.810;9.148;2024-03-17T08:22:36;98688.53;;;9.41;100.00
28312;BME280;15572;48.810;9.148;2024-03-17T08:27:32;98687.81;;;9.47;100.00
28312;BME280;15572;48.810;9.148;2024-03-17T08:32:29;98691.56;;;9.68;100.00
28312;BME280;15572;48.810;9.148;2024-03-17T08:37:25;98700.72;;;9.90;100.00
28312;BME280;15572;48.810;9.148;2024-03-17T08:42:23;98685.50;;;10.20;100.00
28312;BME280;15572;48.810;9.148;2024-03-17T08:47:19;98669.34;;;10.27;100.00
28312;BME280;15572;48.810;9.148;2024-03-17T08:52:16;98682.09;;;10.41;100.00
28312;BME280;15572;48.810;9.148;2024-03-17T08:57:12;98670.25;;;10.57;100.00
28312;BME280;15572;48.810;9.148;2024-03-17T09:02:13;98668.09;;;10.67;100.00
28312;BME280;15572;48.810;9.148;2024-03-17T09:07:10;98676.69;;;10.85;100.00
28312;BME280;15572;48.810;9.148;2024-03-17T09:12:07;98667.53;;;11.01;100.00
28312;BME280;15572;48.810;9.148;2024-03-17T09:17:03;98664.34;;;11.26;100.00
28312;BME280;15572;48.810;9.148;2024-03-17T09:22:01;98664.41;;;11.48;100.00
28312;BME280;15572;48.810;9.148;2024-03-17T09:26:57;98650.97;;;11.61;100.00
28312;BME280;15572;48.810;9.148;2024-03-17T09:31:54;98653.34;;;11.85;100.00
28312;BME280;15572;48.810;9.148;2024-03-17T09:36:50;98654.31;;;11.99;100.00
28312;BME280;15572;48.810;9.148;2024-03-17T09:41:48;98648.63;;;12.15;100.00
28312;BME280;15572;48.810;9.148;2024-03-17T09:46:44;98646.47;;;12.32;100.00
28312;BME280;15572;48.810;9.148;2024-03-17T09:51:42;98641.09;;;12.38;100.00
28312;BME280;15572;48.810;9.148;2024-03-17T09:56:38;98658.13;;;12.53;100.00
28312;BME280;15572;48.810;9.148;2024-03-17T10:01:36;98660.28;;;12.64;100.00
28312;BME280;15572;48.810;9.148;2024-03-17T10:06:32;98654.78;;;12.86;100.00
28312;BME280;15572;48.810;9.148;2024-03-17T10:11:32;98643.16;;;13.05;100.00
28312;BME280;15572;48.810;9.148;2024-03-17T10:16:29;98629.50;;;13.26;100.00
28312;BME280;15572;48.810;9.148;2024-03-17T10:21:27;98641.44;;;13.32;89.19
28312;BME280;15572;48.810;9.148;2024-03-17T10:26:24;98638.16;;;13.43;88.99
28312;BME280;15572;48.810;9.148;2024-03-17T10:31:20;98635.44;;;13.49;86.87
28312;BME280;15572;48.810;9.148;2024-03-17T10:36:17;98649.72;;;13.65;86.97
28312;BME280;15572;48.810;9.148;2024-03-17T10:41:15;98641.38;;;13.73;86.85
28312;BME280;15572;48.810;9.148;2024-03-17T10:46:14;98648.09;;;13.97;84.10
28312;BME280;15572;48.810;9.148;2024-03-17T10:51:16;98645.81;;;14.07;77.18
28312;BME280;15572;48.810;9.148;2024-03-17T10:56:15;98644.94;;;13.80;75.23
28312;BME280;15572;48.810;9.148;2024-03-17T11:01:15;98648.47;;;13.61;70.74
28312;BME280;15572;48.810;9.148;2024-03-17T11:06:11;98650.81;;;13.83;75.75
28312;BME280;15572;48.810;9.148;2024-03-17T11:11:08;98636.81;;;14.06;75.63
28312;BME280;15572;48.810;9.148;2024-03-17T11:16:25;98645.97;;;13.66;69.26
28312;BME280;15572;48.810;9.148;2024-03-17T11:21:24;98632.16;;;13.74;71.90
28312;BME280;15572;48.810;9.148;2024-03-17T11:26:26;98629.50;;;13.94;73.97
28312;BME280;15572;48.810;9.148;2024-03-17T11:31:54;98619.84;;;14.11;74.87
28312;BME280;15572;48.810;9.148;2024-03-17T11:36:52;98618.00;;;14.05;73.10
28312;BME280;15572;48.810;9.148;2024-03-17T11:41:50;98611.69;;;14.30;74.13
28312;BME280;15572;48.810;9.148;2024-03-17T11:46:50;98597.66;;;14.20;72.19
28312;BME280;15572;48.810;9.148;2024-03-17T11:51:49;98598.50;;;14.14;69.92
28312;BME280;15572;48.810;9.148;2024-03-17T11:56:48;98593.28;;;14.39;69.00
28312;BME280;15572;48.810;9.148;2024-03-17T12:01:45;98601.66;;;14.44;69.98
28312;BME280;15572;48.810;9.148;2024-03-17T12:06:44;98583.75;;;14.74;70.39
28312;BME280;15572;48.810;9.148;2024-03-17T12:11:42;98585.25;;;14.77;68.50
28312;BME280;15572;48.810;9.148;2024-03-17T12:16:46;98581.03;;;14.81;69.46
28312;BME280;15572;48.810;9.148;2024-03-17T12:21:44;98574.31;;;14.90;69.33
28312;BME280;15572;48.810;9.148;2024-03-17T12:26:42;98577.44;;;14.94;68.41
28312;BME280;15572;48.810;9.148;2024-03-17T12:31:38;98563.47;;;15.22;67.93
28312;BME280;15572;48.810;9.148;2024-03-17T12:36:35;98562.34;;;14.91;65.75
28312;BME280;15572;48.810;9.148;2024-03-17T12:41:31;98555.91;;;14.79;64.04
28312;BME280;15572;48.810;9.148;2024-03-17T12:46:29;98552.16;;;14.73;62.81
28312;BME280;15572;48.810;9.148;2024-03-17T12:51:26;98539.63;;;14.53;64.74
28312;BME280;15572;48.810;9.148;2024-03-17T12:56:23;98535.88;;;14.21;64.54
28312;BME280;15572;48.810;9.148;2024-03-17T13:01:50;98540.69;;;14.19;65.65
28312;BME280;15572;48.810;9.148;2024-03-17T13:06:46;98531.25;;;14.34;66.13
28312;BME280;15572;48.810;9.148;2024-03-17T13:11:44;98539.63;;;14.26;65.21
28312;BME280;15572;48.810;9.148;2024-03-17T13:16:40;98531.22;;;14.48;64.67
28312;BME280;15572;48.810;9.148;2024-03-17T13:21:38;98527.75;;;14.92;63.76
28312;BME280;15572;48.810;9.148;2024-03-17T13:26:34;98527.63;;;15.18;63.18
28312;BME280;15572;48.810;9.148;2024-03-17T13:31:31;98519.19;;;15.26;62.81
28312;BME280;15572;48.810;9.148;2024-03-17T13:36:27;98515.66;;;15.57;62.50
28312;BME280;15572;48.810;9.148;2024-03-17T13:41:25;98504.16;;;15.80;60.46
28312;BME280;15572;48.810;9.148;2024-03-17T13:46:22;98510.25;;;15.44;60.74
28312;BME280;15572;48.810;9.148;2024-03-17T13:51:18;98490.28;;;15.81;60.66
28312;BME280;15572;48.810;9.148;2024-03-17T13:56:15;98491.94;;;15.82;61.20
28312;BME280;15572;48.810;9.148;2024-03-17T14:01:13;98492.09;;;15.87;61.29
28312;BME280;15572;48.810;9.148;2024-03-17T14:06:09;98486.31;;;15.77;61.39
28312;BME280;15572;48.810;9.148;2024-03-17T14:11:05;98487.28;;;15.65;60.81
28312;BME280;15572;48.810;9.148;2024-03-17T14:16:02;98483.88;;;15.38;59.95
28312;BME280;15572;48.810;9.148;2024-03-17T14:21:00;98469.22;;;15.01;61.28
28312;BME280;15572;48.810;9.148;2024-03-17T14:25:56;98460.88;;;15.27;61.15
28312;BME280;15572;48.810;9.148;2024-03-17T14:30:53;98454.53;;;15.65;60.08
28312;BME280;15572;48.810;9.148;2024-03-17T14:35:55;98461.19;;;15.93;59.54
28312;BME280;15572;48.810;9.148;2024-03-17T14:40:53;98458.50;;;16.12;59.13
28312;BME280;15572;48.810;9.148;2024-03-17T14:45:50;98462.75;;;16.08;59.55
28312;BME280;15572;48.810;9.148;2024-03-17T14:50:46;98444.00;;;16.11;57.97
28312;BME280;15572;48.810;9.148;2024-03-17T14:55:43;98439.00;;;16.08;58.00
28312;BME280;15572;48.810;9.148;2024-03-17T15:00:41;98446.28;;;15.96;58.24
28312;BME280;15572;48.810;9.148;2024-03-17T15:05:37;98436.44;;;16.13;57.65
28312;BME280;15572;48.810;9.148;2024-03-17T15:10:34;98432.50;;;16.27;57.21
28312;BME280;15572;48.810;9.148;2024-03-17T15:15:30;98423.75;;;16.19;56.93
28312;BME280;15572;48.810;9.148;2024-03-17T15:20:28;98433.09;;;16.29;56.87
28312;BME280;15572;48.810;9.148;2024-03-17T15:25:24;98423.94;;;16.24;58.02
28312;BME280;15572;48.810;9.148;2024-03-17T15:30:21;98429.56;;;15.86;58.49
28312;BME280;15572;48.810;9.148;2024-03-17T15:35:20;98421.50;;;15.73;60.00
28312;BME280;15572;48.810;9.148;2024-03-17T15:40:18;98410.44;;;15.36;60.61
28312;BME280;15572;48.810;9.148;2024-03-17T15:45:16;98414.59;;;15.39;61.02
28312;BME280;15572;48.810;9.148;2024-03-17T15:50:13;98413.69;;;14.95;62.50
28312;BME280;15572;48.810;9.148;2024-03-17T15:55:10;98413.59;;;14.70;63.98
28312;BME280;15572;48.810;9.148;2024-03-17T16:00:09;98424.19;;;14.47;65.67
28312;BME280;15572;48.810;9.148;2024-03-17T16:05:07;98413.78;;;14.18;67.01
28312;BME280;15572;48.810;9.148;2024-03-17T16:10:08;98406.50;;;13.99;68.11
28312;BME280;15572;48.810;9.148;2024-03-17T16:15:08;98406.13;;;13.69;67.76
28312;BME280;15572;48.810;9.148;2024-03-17T16:20:07;98414.09;;;13.57;67.76
28312;BME280;15572;48.810;9.148;2024-03-17T16:25:05;98394.00;;;13.52;68.99
28312;BME280;15572;48.810;9.148;2024-03-17T16:30:02;98388.38;;;13.40;69.03
28312;BME280;15572;48.810;9.148;2024-03-17T16:35:06;98403.66;;;13.34;70.46
28312;BME280;15572;48.810;9.148;2024-03-17T16:40:03;98400.28;;;13.26;71.09
28312;BME280;15572;48.810;9.148;2024-03-17T16:45:04;98401.75;;;13.22;71.81
28312;BME280;15572;48.810;9.148;2024-03-17T16:50:02;98399.81;;;13.09;72.41
28312;BME280;15572;48.810;9.148;2024-03-17T16:55:02;98396.88;;;13.04;73.25
28312;BME280;15572;48.810;9.148;2024-03-17T17:00:00;98398.97;;;12.95;74.49
28312;BME280;15572;48.810;9.148;2024-03-17T17:04:56;98389.13;;;12.88;75.26
28312;BME280;15572;48.810;9.148;2024-03-17T17:09:52;98400.22;;;12.80;75.95
28312;BME280;15572;48.810;9.148;2024-03-17T17:14:50;98389.75;;;12.70;77.17
28312;BME280;15572;48.810;9.148;2024-03-17T17:19:46;98376.75;;;12.59;78.51
28312;BME280;15572;48.810;9.148;2024-03-17T17:24:45;98378.00;;;12.50;79.55
28312;BME280;15572;48.810;9.148;2024-03-17T17:29:41;98377.31;;;12.41;80.27
28312;BME280;15572;48.810;9.148;2024-03-17T17:34:39;98378.34;;;12.34;80.79
28312;BME280;15572;48.810;9.148;2024-03-17T17:44:25;98377.88;;;12.23;81.25
28312;BME280;15572;48.810;9.148;2024-03-17T17:49:22;98384.75;;;12.19;81.77
28312;BME280;15572;48.810;9.148;2024-03-17T17:54:19;98383.28;;;12.17;81.78
28312;BME280;15572;48.810;9.148;2024-03-17T17:59:16;98384.72;;;12.13;81.33
28312;BME280;15572;48.810;9.148;2024-03-17T18:04:15;98379.91;;;12.08;81.25
28312;BME280;15572;48.810;9.148;2024-03-17T18:09:11;98386.72;;;11.98;82.52
28312;BME280;15572;48.810;9.148;2024-03-17T18:14:13;98380.84;;;11.88;83.38
28312;BME280;15572;48.810;9.148;2024-03-17T18:19:10;98387.06;;;11.81;83.93
28312;BME280;15572;48.810;9.148;2024-03-17T18:24:08;98387.59;;;11.70;84.99
28312;BME280;15572;48.810;9.148;2024-03-17T18:29:05;98381.28;;;11.63;86.11
28312;BME280;15572;48.810;9.148;2024-03-17T18:34:01;98376.00;;;11.55;87.46
28312;BME280;15572;48.810;9.148;2024-03-17T18:38:57;98382.38;;;11.41;89.27
28312;BME280;15572;48.810;9.148;2024-03-17T18:43:55;98377.94;;;11.33;90.17
28312;BME280;15572;48.810;9.148;2024-03-17T18:48:52;98384.34;;;11.26;90.81
28312;BME280;15572;48.810;9.148;2024-03-17T18:53:48;98392.84;;;11.16;91.66
28312;BME280;15572;48.810;9.148;2024-03-17T18:58:49;98393.59;;;11.10;92.90
28312;BME280;15572;48.810;9.148;2024-03-17T19:03:47;98398.13;;;11.03;94.64
28312;BME280;15572;48.810;9.148;2024-03-17T19:08:44;98393.72;;;10.81;95.50
28312;BME280;15572;48.810;9.148;2024-03-17T19:13:41;98398.72;;;10.77;95.59
28312;BME280;15572;48.810;9.148;2024-03-17T19:18:37;98394.75;;;10.59;95.62
28312;BME280;15572;48.810;9.148;2024-03-17T19:23:37;98392.00;;;10.52;95.63
28312;BME280;15572;48.810;9.148;2024-03-17T19:28:34;98399.72;;;10.55;95.92
28312;BME280;15572;48.810;9.148;2024-03-17T19:33:31;98395.31;;;10.54;97.48
28312;BME280;15572;48.810;9.148;2024-03-17T19:38:28;98380.56;;;10.35;98.22
28312;BME280;15572;48.810;9.148;2024-03-17T19:43:27;98380.03;;;10.25;99.83
28312;BME280;15572;48.810;9.148;2024-03-17T19:48:24;98375.38;;;10.19;100.00
28312;BME280;15572;48.810;9.148;2024-03-17T19:53:21;98369.75;;;10.21;100.00
28312;BME280;15572;48.810;9.148;2024-03-17T19:58:17;98369.75;;;10.21;100.00
28312;BME280;15572;48.810;9.148;2024-03-17T20:03:15;98376.84;;;10.22;100.00
28312;BME280;15572;48.810;9.148;2024-03-17T20:08:11;98380.13;;;10.17;100.00
28312;BME280;15572;48.810;9.148;2024-03-17T20:13:08;98375.06;;;10.14;100.00
28312;BME280;15572;48.810;9.148;2024-03-17T20:18:04;98378.34;;;10.09;100.00
28312;BME280;15572;48.810;9.148;2024-03-17T20:23:03;98371.34;;;10.00;100.00
28312;BME280;15572;48.810;9.148;2024-03-17T20:28:00;98368.09;;;9.90;100.00
28312;BME280;15572;48.810;9.148;2024-03-17T20:32:57;98353.09;;;9.73;100.00
28312;BME280;15572;48.810;9.148;2024-03-17T20:37:56;98345.19;;;9.71;100.00
28312;BME280;15572;48.810;9.148;2024-03-17T20:42:55;98340.63;;;9.72;100.00
28312;BME280;15572;48.810;9.148;2024-03-17T20:47:52;98337.69;;;9.73;100.00
28312;BME280;15572;48.810;9.148;2024-03-17T20:52:50;98347.09;;;9.78;100.00
28312;BME280;15572;48.810;9.148;2024-03-17T20:57:48;98342.94;;;9.75;100.00
28312;BME280;15572;48.810;9.148;2024-03-17T21:02:46;98345.34;;;9.70;100.00
28312;BME280;15572;48.810;9.148;2024-03-17T21:07:43;98323.72;;;9.70;100.00
28312;BME280;15572;48.810;9.148;2024-03-17T21:12:40;98324.75;;;9.69;100.00
28312;BME280;15572;48.810;9.148;2024-03-17T21:17:36;98321.38;;;9.67;100.00
28312;BME280;15572;48.810;9.148;2024-03-17T21:22:34;98325.13;;;9.66;100.00
28312;BME280;15572;48.810;9.148;2024-03-17T21:27:31;98313.78;;;9.56;100.00
28312;BME280;15572;48.810;9.148;2024-03-17T21:32:28;98307.72;;;9.54;100.00
28312;BME280;15572;48.810;9.148;2024-03-17T21:37:25;98308.72;;;9.53;100.00
28312;BME280;15572;48.810;9.148;2024-03-17T21:42:23;98302.47;;;9.52;100.00
28312;BME280;15572;48.810;9.148;2024-03-17T21:47:20;98301.09;;;9.42;100.00
28312;BME280;15572;48.810;9.148;2024-03-17T21:52:16;98300.34;;;9.33;100.00
28312;BME280;15572;48.810;9.148;2024-03-17T21:57:12;98284.50;;;9.15;100.00
28312;BME280;15572;48.810;9.148;2024-03-17T22:02:10;98280.69;;;9.10;100.00
28312;BME280;15572;48.810;9.148;2024-03-17T22:07:07;98276.13;;;9.10;100.00
28312;BME280;15572;48.810;9.148;2024-03-17T22:12:04;98282.47;;;9.17;100.00
28312;BME280;15572;48.810;9.148;2024-03-17T22:17:01;98277.63;;;9.27;100.00
28312;BME280;15572;48.810;9.148;2024-03-17T22:21:58;98281.63;;;9.32;100.00
28312;BME280;15572;48.810;9.148;2024-03-17T22:26:55;98272.84;;;9.29;100.00
28312;BME280;15572;48.810;9.148;2024-03-17T22:31:52;98269.69;;;9.26;100.00
28312;BME280;15572;48.810;9.148;2024-03-17T22:36:48;98267.28;;;9.31;100.00
28312;BME280;15572;48.810;9.148;2024-03-17T22:41:46;98267.28;;;9.31;100.00
28312;BME280;15572;48.810;9.148;2024-03-17T22:46:43;98256.47;;;9.31;100.00
28312;BME280;15572;48.810;9.148;2024-03-17T22:51:39;98257.31;;;9.32;100.00
28312;BME280;15572;48.810;9.148;2024-03-17T22:56:36;98258.06;;;9.11;100.00
28312;BME280;15572;48.810;9.148;2024-03-17T23:01:34;98253.09;;;8.85;100.00
28312;BME280;15572;48.810;9.148;2024-03-17T23:06:30;98256.25;;;8.88;100.00
28312;BME280;15572;48.810;9.148;2024-03-17T23:11:26;98248.81;;;8.91;100.00
28312;BME280;15572;48.810;9.148;2024-03-17T23:16:23;98246.69;;;9.01;100.00
28312;BME280;15572;48.810;9.148;2024-03-17T23:21:20;98252.75;;;9.03;100.00
28312;BME280;15572;48.810;9.148;2024-03-17T23:26:17;98254.41;;;9.04;100.00
28312;BME280;15572;48.810;9.148;2024-03-17T23:31:15;98246.41;;;8.96;100.00
28312;BME280;15572;48.810;9.148;2024-03-17T23:36:13;98239.16;;;8.96;100.00
28312;BME280;15572;48.810;9.148;2024-03-17T23:41:11;98231.41;;;8.93;100.00
28312;BME280;15572;48.810;9.148;2024-03-17T23:46:08;98236.91;;;9.00;100.00
28312;BME280;15572;48.810;9.148;2024-03-17T23:51:05;98233.00;;;9.02;100.00
28312;BME280;15572;48.810;9.148;2024-03-17T23:56:01;98226.22;;;9.06;100.00
